Time;durP1;ratioP1;P1;durP2;ratioP2;P2;SDS_P1;SDS_P2;PMS_P1;PMS_P2;Temp;Humidity;BMP_temperature;BMP_pressure;BME280_temperature;BME280_humidity;BME280_pressure;Samples;Min_cycle;Max_cycle;Signal;HPM_P1;HPM_P2
2022/10/11 00:01:49;;;;;;;81.53;38.75;;;;;;;17.21;100.00;94964.63;5097268;28;20499;-85
2022/10/11 00:04:14;;;;;;;79.00;37.90;;;;;;;17.41;100.00;94964.50;5098815;28;20036;-84
2022/10/11 00:06:42;;;;;;;77.13;37.88;;;;;;;17.43;100.00;94965.78;5097200;28;20036;-85
2022/10/11 00:09:08;;;;;;;82.35;40.05;;;;;;;17.01;100.00;94957.84;5097306;28;20036;-85
2022/10/11 00:11:34;;;;;;;72.38;38.22;;;;;;;17.29;100.00;94967.66;5096791;28;20118;-85
2022/10/11 00:13:59;;;;;;;82.20;40.85;;;;;;;17.00;100.00;94963.41;5096291;28;20070;-85
2022/10/11 00:16:25;;;;;;;74.32;39.47;;;;;;;16.99;100.00;94959.19;5080440;28;20031;-85
2022/10/11 00:18:50;;;;;;;78.50;40.63;;;;;;;17.08;100.00;94962.75;5096923;28;20038;-85
2022/10/11 00:21:15;;;;;;;82.78;41.92;;;;;;;17.03;100.00;94960.97;5080571;28;20039;-84
2022/10/11 00:23:41;;;;;;;87.28;41.42;;;;;;;16.67;100.00;94953.66;5098333;28;20038;-85
2022/10/11 00:26:08;;;;;;;88.72;44.20;;;;;;;16.71;100.00;94957.28;5096914;28;20114;-85
2022/10/11 00:28:35;;;;;;;83.22;41.58;;;;;;;16.84;100.00;94954.97;5096769;28;20386;-85
2022/10/11 00:31:00;;;;;;;82.97;41.88;;;;;;;16.86;100.00;94955.44;5071189;28;20446;-85
2022/10/11 00:33:26;;;;;;;78.43;41.13;;;;;;;16.79;100.00;94954.00;5093007;28;20040;-85
2022/10/11 00:35:52;;;;;;;82.70;42.00;;;;;;;16.82;100.00;94961.34;5081044;28;20036;-85
2022/10/11 00:38:17;;;;;;;83.28;41.72;;;;;;;16.75;100.00;94958.28;5081589;28;20025;-86
2022/10/11 00:40:44;;;;;;;77.90;41.28;;;;;;;16.82;100.00;94947.31;5083293;28;20036;-85
2022/10/11 00:43:16;;;;;;;77.80;39.58;;;;;;;16.86;100.00;94944.88;5076335;28;20114;-85
2022/10/11 00:45:51;;;;;;;78.57;41.13;;;;;;;16.90;100.00;94954.56;5096435;28;20024;-85
2022/10/11 00:48:44;;;;;;;77.80;40.55;;;;;;;16.86;100.00;94952.81;5097619;28;20036;-85
2022/10/11 00:51:16;;;;;;;77.05;40.97;;;;;;;16.87;100.00;94944.59;5096469;28;20023;-85
2022/10/11 00:53:42;;;;;;;78.47;41.47;;;;;;;16.82;100.00;94949.94;5096498;28;20024;-85
2022/10/11 00:56:16;;;;;;;80.72;40.92;;;;;;;16.79;100.00;94948.69;5079543;28;20031;-86
2022/10/11 00:58:42;;;;;;;81.05;38.55;;;;;;;16.73;100.00;94951.72;5096209;28;20131;-86
2022/10/11 01:01:09;;;;;;;75.03;40.75;;;;;;;16.70;100.00;94949.63;5096153;28;20052;-85
2022/10/11 01:03:35;;;;;;;81.90;40.38;;;;;;;16.75;100.00;94946.91;5079465;28;20024;-86
2022/10/11 01:06:02;;;;;;;80.80;41.00;;;;;;;16.76;100.00;94951.91;5096151;28;20379;-85
2022/10/11 01:08:28;;;;;;;83.18;39.85;;;;;;;16.77;100.00;94945.53;5096017;28;20114;-85
2022/10/11 01:10:54;;;;;;;74.45;39.85;;;;;;;16.69;100.00;94946.22;5095949;28;20062;-85
2022/10/11 01:13:37;;;;;;;84.15;42.50;;;;;;;16.32;100.00;94942.59;5096084;28;20080;-85
2022/10/11 01:16:03;;;;;;;;;;;;;;;16.21;100.00;94945.41;5079585;28;20033;-85
2022/10/11 01:18:44;;;;;;;94.97;41.07;;;;;;;16.13;100.00;94937.34;5097197;28;20232;-85
2022/10/11 01:21:09;;;;;;;84.30;42.45;;;;;;;16.08;100.00;94946.16;5079232;28;20266;-86
2022/10/11 01:23:58;;;;;;;97.25;43.55;;;;;;;15.83;100.00;94946.19;5096724;28;20054;-86
2022/10/11 01:26:36;;;;;;;98.93;47.33;;;;;;;15.33;100.00;94941.28;5096078;28;20035;-85
2022/10/11 01:29:12;;;;;;;102.28;46.58;;;;;;;15.62;100.00;94939.63;5095901;28;20028;-86
2022/10/11 01:31:39;;;;;;;98.47;45.30;;;;;;;15.86;100.00;94952.00;5079240;28;20401;-86
2022/10/11 01:34:11;;;;;;;96.38;46.72;;;;;;;15.89;100.00;94952.22;5095765;28;20024;-86
2022/10/11 01:36:46;;;;;;;90.45;43.42;;;;;;;16.18;100.00;94950.50;5095721;28;20072;-85
2022/10/11 01:39:35;;;;;;;95.07;42.92;;;;;;;16.43;100.00;94940.59;5078953;28;20081;-85
2022/10/11 01:42:02;;;;;;;82.75;40.17;;;;;;;16.63;100.00;94936.78;5095663;28;20459;-85
2022/10/11 01:44:29;;;;;;;84.70;39.63;;;;;;;16.67;100.00;94937.78;5095681;28;20058;-85
2022/10/11 01:46:54;;;;;;;84.55;41.72;;;;;;;16.61;100.00;94941.59;5095513;28;20035;-85
2022/10/11 01:49:20;;;;;;;78.50;38.92;;;;;;;16.80;100.00;94941.53;5095628;28;20126;-85
2022/10/11 01:51:50;;;;;;;75.00;38.88;;;;;;;16.85;100.00;94938.00;5078956;28;20063;-86
2022/10/11 01:54:40;;;;;;;87.40;39.60;;;;;;;16.62;100.00;94932.56;5095554;28;20122;-86
2022/10/11 01:57:30;;;;;;;81.05;38.05;;;;;;;16.96;100.00;94934.88;5096522;28;20044;-86
2022/10/11 02:00:05;;;;;;;70.93;36.10;;;;;;;17.01;100.00;94939.31;5095426;28;20054;-85
2022/10/11 02:03:04;;;;;;;69.40;34.28;;;;;;;17.14;100.00;94932.44;5078853;28;20071;-85
2022/10/11 02:05:29;;;;;;;71.10;37.13;;;;;;;16.71;100.00;94927.38;5078617;28;20448;-85
2022/10/11 02:08:37;;;;;;;78.53;38.90;;;;;;;16.35;100.00;94928.78;5096458;28;20028;-85
2022/10/11 02:11:11;;;;;;;80.80;39.72;;;;;;;16.24;100.00;94918.41;5082289;28;20342;-85
2022/10/11 02:13:52;;;;;;;78.38;39.30;;;;;;;16.35;100.00;94928.78;5096567;28;20024;-85
2022/10/11 02:16:19;;;;;;;76.97;37.80;;;;;;;16.66;100.00;94921.13;5095486;28;20118;-85
2022/10/11 02:18:47;;;;;;;74.47;38.13;;;;;;;16.75;100.00;94915.16;5095142;28;20031;-85
2022/10/11 02:21:16;;;;;;;80.97;40.75;;;;;;;16.68;100.00;94915.56;5095243;28;20028;-85
2022/10/11 02:23:46;;;;;;;72.20;37.40;;;;;;;16.52;100.00;94917.66;5095577;28;20115;-85
2022/10/11 02:26:13;;;;;;;79.63;40.35;;;;;;;16.23;100.00;94918.69;5095289;28;20139;-86
2022/10/11 02:28:41;;;;;;;81.50;39.22;;;;;;;16.31;100.00;94912.75;5078519;28;20495;-86
2022/10/11 02:31:07;;;;;;;89.15;39.67;;;;;;;16.20;100.00;94914.75;5078720;28;20028;-86
2022/10/11 02:33:38;;;;;;;73.60;38.30;;;;;;;16.57;100.00;94909.66;5078584;28;20503;-86
2022/10/11 02:36:10;;;;;;;70.43;35.17;;;;;;;16.75;100.00;94910.66;5096557;28;20106;-86
2022/10/11 02:38:39;;;;;;;75.88;37.65;;;;;;;16.74;100.00;94906.44;5099064;28;20031;-86
2022/10/11 02:41:11;;;;;;;79.88;37.83;;;;;;;16.61;100.00;94908.00;5098777;28;20036;-86
2022/10/11 02:43:40;;;;;;;74.63;38.80;;;;;;;16.53;100.00;94898.88;5098927;28;20031;-86
2022/10/11 02:46:07;;;;;;;77.72;39.35;;;;;;;16.50;100.00;94901.31;5098853;28;20024;-86
2022/10/11 02:48:34;;;;;;;83.25;42.22;;;;;;;15.94;100.00;94903.81;5081948;28;20028;-86
2022/10/11 02:51:01;;;;;;;82.95;39.42;;;;;;;16.29;100.00;94906.16;5082141;28;20071;-86
2022/10/11 02:53:27;;;;;;;87.68;41.38;;;;;;;15.92;100.00;94909.38;5098681;28;20069;-86
2022/10/11 02:55:53;;;;;;;73.80;35.85;;;;;;;16.11;100.00;94908.56;5098630;28;20122;-85
2022/10/11 02:58:19;;;;;;;68.97;35.13;;;;;;;16.17;100.00;94904.75;5098391;28;20051;-85
2022/10/11 03:00:44;;;;;;;71.25;36.42;;;;;;;16.13;100.00;94905.63;5086643;28;20107;-86
2022/10/11 03:03:10;;;;;;;78.95;38.25;;;;;;;16.09;100.00;94906.19;5080686;28;20105;-86
2022/10/11 03:05:42;;;;;;;84.95;38.72;;;;;;;15.96;100.00;94899.81;5061756;28;20071;-86
2022/10/11 03:11:22;;;;;;;95.72;42.10;;;;;;;15.40;100.00;94910.06;5022697;28;20071;-86
2022/10/11 03:13:48;;;;;;;92.97;44.35;;;;;;;15.56;100.00;94899.28;5072345;28;20040;-86
2022/10/11 03:16:13;;;;;;;95.60;44.10;;;;;;;15.61;100.00;94901.09;5077948;28;20036;-86
2022/10/11 03:18:39;;;;;;;91.45;43.13;;;;;;;15.79;100.00;94904.81;5061573;28;20024;-86
2022/10/11 03:21:04;;;;;;;96.85;45.13;;;;;;;15.52;100.00;94903.59;5077790;28;20029;-86
2022/10/11 03:23:30;;;;;;;80.88;40.58;;;;;;;15.69;100.00;94903.06;5097999;28;20500;-86
2022/10/11 03:25:55;;;;;;;81.93;41.80;;;;;;;15.55;100.00;94911.69;5098041;28;20387;-86
2022/10/11 03:28:22;;;;;;;84.78;43.08;;;;;;;15.66;100.00;94912.38;5097841;28;20035;-86
2022/10/11 03:30:48;;;;;;;81.35;38.92;;;;;;;15.81;100.00;94906.06;5080979;28;20395;-86
2022/10/11 03:33:14;;;;;;;87.05;40.63;;;;;;;15.78;100.00;94900.56;5097936;28;20036;-86
2022/10/11 03:35:39;;;;;;;86.78;40.78;;;;;;;15.81;100.00;94910.56;5097888;28;20326;-86
2022/10/11 03:38:05;;;;;;;91.43;42.45;;;;;;;15.84;100.00;94910.00;5081199;28;20035;-86
2022/10/11 03:40:31;;;;;;;89.00;40.70;;;;;;;15.79;100.00;94916.13;5097946;28;20077;-86
2022/10/11 03:42:56;;;;;;;81.85;40.25;;;;;;;15.74;100.00;94918.06;5080795;28;20130;-86
2022/10/11 03:45:22;;;;;;;90.65;41.35;;;;;;;15.81;100.00;94907.94;5097919;28;20038;-86
2022/10/11 03:47:48;;;;;;;85.65;39.83;;;;;;;15.77;100.00;94904.28;5080604;28;20044;-86
2022/10/11 03:50:13;;;;;;;82.90;40.03;;;;;;;15.65;100.00;94910.81;5097488;28;20032;-86
2022/10/11 03:52:50;;;;;;;89.35;41.90;;;;;;;15.75;100.00;94914.34;5080805;28;20023;-86
2022/10/11 03:55:16;;;;;;;89.88;44.65;;;;;;;15.62;100.00;94919.28;5097814;28;20081;-86
2022/10/11 03:57:44;;;;;;;88.43;40.95;;;;;;;15.54;100.00;94917.28;5097362;28;20433;-86
2022/10/11 04:00:10;;;;;;;95.18;43.92;;;;;;;15.21;100.00;94912.69;5098430;28;20031;-86
2022/10/11 04:02:35;;;;;;;87.10;40.45;;;;;;;15.22;100.00;94918.75;5080688;28;20081;-86
2022/10/11 04:05:01;;;;;;;87.05;41.25;;;;;;;15.36;100.00;94914.34;5098514;28;20395;-86
2022/10/11 04:07:27;;;;;;;83.65;41.15;;;;;;;15.29;100.00;94916.53;5097379;28;20032;-86
2022/10/11 04:09:52;;;;;;;85.82;40.88;;;;;;;15.27;100.00;94916.03;5098190;28;20043;-86
2022/10/11 04:12:18;;;;;;;89.40;43.08;;;;;;;15.14;100.00;94914.88;5076852;28;20039;-86
2022/10/11 04:14:43;;;;;;;106.00;47.13;;;;;;;14.82;100.00;94919.72;5076893;28;20051;-86
2022/10/11 04:17:10;;;;;;;125.70;52.17;;;;;;;14.54;100.00;94921.28;5077116;28;20029;-86
2022/10/11 04:19:36;;;;;;;131.75;53.40;;;;;;;14.49;100.00;94914.22;5076664;28;20020;-86
2022/10/11 04:22:05;;;;;;;141.70;57.35;;;;;;;14.43;100.00;94923.22;5078098;28;20033;-86
2022/10/11 04:24:30;;;;;;;130.13;54.75;;;;;;;14.59;100.00;94921.25;5091478;28;20490;-86
2022/10/11 04:26:56;;;;;;;117.70;52.08;;;;;;;14.71;100.00;94918.22;5096863;28;20055;-86
2022/10/11 04:29:22;;;;;;;121.82;53.08;;;;;;;14.41;100.00;94920.09;5097919;28;20028;-87
2022/10/11 04:31:47;;;;;;;109.35;49.05;;;;;;;14.81;100.00;94922.63;5080047;28;20039;-86
2022/10/11 04:34:12;;;;;;;111.88;49.70;;;;;;;14.94;100.00;94915.91;5096704;28;20357;-87
2022/10/11 04:36:38;;;;;;;99.13;45.25;;;;;;;14.82;100.00;94926.81;5097286;28;20036;-86
2022/10/11 04:39:05;;;;;;;116.95;51.15;;;;;;;14.60;100.00;94924.66;5079814;28;20028;-86
2022/10/11 04:41:30;;;;;;;127.88;53.30;;;;;;;14.40;100.00;94924.56;5080039;28;20038;-86
2022/10/11 04:43:56;;;;;;;138.10;55.83;;;;;;;14.17;100.00;94922.66;5097681;28;20425;-86
2022/10/11 04:46:22;;;;;;;140.43;55.55;;;;;;;14.31;100.00;94922.81;5096715;28;20032;-85
2022/10/11 04:48:48;;;;;;;139.15;56.58;;;;;;;14.28;100.00;94937.34;5096204;28;20069;-86
2022/10/11 04:51:13;;;;;;;146.32;57.60;;;;;;;14.13;100.00;94936.41;5078953;28;20032;-85
2022/10/11 04:53:38;;;;;;;149.43;59.85;;;;;;;14.23;100.00;94929.44;5079115;28;20032;-86
2022/10/11 04:56:06;;;;;;;129.07;55.05;;;;;;;14.54;100.00;94932.63;5096443;28;20431;-86
2022/10/11 04:58:33;;;;;;;122.05;52.20;;;;;;;14.88;100.00;94938.13;5095776;28;20348;-86
2022/10/11 05:00:58;;;;;;;142.27;56.03;;;;;;;14.71;100.00;94939.31;5079381;28;20028;-85
2022/10/11 05:03:24;;;;;;;130.73;53.72;;;;;;;14.82;100.00;94932.09;5075509;28;20119;-86
2022/10/11 05:05:50;;;;;;;128.30;53.63;;;;;;;14.79;100.00;94925.56;5086999;28;20044;-86
2022/10/11 05:08:16;;;;;;;103.15;48.08;;;;;;;15.16;100.00;94931.22;5095929;28;20039;-86
2022/10/11 05:10:41;;;;;;;117.47;49.42;;;;;;;14.92;100.00;94924.09;5080944;28;20078;-85
2022/10/11 05:13:07;;;;;;;100.07;45.80;;;;;;;15.19;100.00;94935.94;5075990;28;20039;-85
2022/10/11 05:15:33;;;;;;;99.90;45.85;;;;;;;15.07;100.00;94931.06;5075813;28;20085;-85
2022/10/11 05:17:58;;;;;;;100.20;44.95;;;;;;;14.99;100.00;94934.31;5075937;28;20028;-85
2022/10/11 05:20:23;;;;;;;99.10;45.42;;;;;;;14.96;100.00;94932.25;5075431;28;20035;-85
2022/10/11 05:22:49;;;;;;;107.70;47.83;;;;;;;14.78;100.00;94939.00;5075783;28;20033;-85
2022/10/11 05:25:14;;;;;;;102.35;45.25;;;;;;;14.88;100.00;94936.28;5058758;28;20497;-85
2022/10/11 05:27:40;;;;;;;89.10;43.13;;;;;;;14.93;100.00;94924.88;5075752;28;20040;-85
2022/10/11 05:30:06;;;;;;;99.15;44.83;;;;;;;14.53;100.00;94928.41;5076341;28;20036;-85
2022/10/11 05:32:31;;;;;;;112.78;49.65;;;;;;;14.48;100.00;94941.63;5075819;28;20505;-85
2022/10/11 05:34:57;;;;;;;105.38;49.70;;;;;;;14.65;100.00;94935.94;5075507;28;20121;-85
2022/10/11 05:37:23;;;;;;;104.78;48.38;;;;;;;14.55;100.00;94936.81;5059000;28;20433;-85
2022/10/11 05:39:48;;;;;;;114.38;49.47;;;;;;;14.53;100.00;94944.22;5081830;28;20145;-85
2022/10/11 05:42:14;;;;;;;109.57;47.28;;;;;;;14.67;100.00;94948.84;5096667;28;20081;-84
2022/10/11 05:44:39;;;;;;;100.63;46.17;;;;;;;14.79;100.00;94943.22;5097203;28;20097;-87
2022/10/11 05:47:05;;;;;;;105.85;47.42;;;;;;;14.94;100.00;94943.06;5095770;28;20035;-87
2022/10/11 05:49:30;;;;;;;95.88;44.55;;;;;;;14.98;100.00;94944.06;5079008;28;20034;-87
2022/10/11 05:51:56;;;;;;;107.53;47.35;;;;;;;15.26;100.00;94949.56;5095789;28;20073;-87
2022/10/11 05:54:21;;;;;;;103.07;44.85;;;;;;;15.49;100.00;94952.47;5095864;28;20028;-87
2022/10/11 05:56:47;;;;;;;94.57;43.70;;;;;;;15.61;100.00;94954.69;5096010;28;20040;-87
2022/10/11 05:59:13;;;;;;;90.43;43.08;;;;;;;15.79;100.00;94960.28;5079313;28;20130;-87
2022/10/11 06:01:38;;;;;;;96.18;42.05;;;;;;;15.77;100.00;94968.47;5079211;28;20024;-88
2022/10/11 06:04:04;;;;;;;85.68;41.05;;;;;;;15.80;100.00;94970.53;5079139;28;20035;-87
2022/10/11 06:06:29;;;;;;;89.10;44.55;;;;;;;15.31;100.00;94967.19;5096826;28;20034;-88
2022/10/11 06:08:55;;;;;;;88.07;43.75;;;;;;;15.41;100.00;94975.00;5095526;28;20028;-87
2022/10/11 06:11:25;;;;;;;82.35;39.58;;;;;;;15.88;100.00;94971.75;5082609;28;20131;-87
2022/10/11 06:13:55;;;;;;;83.28;37.60;;;;;;;15.98;100.00;94970.84;5099806;28;20039;-88
2022/10/11 06:16:20;;;;;;;75.72;37.00;;;;;;;16.02;100.00;94971.88;5099754;28;20028;-87
2022/10/11 06:18:46;;;;;;;76.47;38.78;;;;;;;16.13;100.00;94969.06;5099523;28;20077;-87
2022/10/11 06:21:12;;;;;;;77.63;37.53;;;;;;;16.20;100.00;94972.91;5099631;28;20053;-88
2022/10/11 06:23:38;;;;;;;92.15;39.67;;;;;;;15.92;100.00;94975.44;5099572;28;20031;-87
2022/10/11 06:26:05;;;;;;;80.28;39.65;;;;;;;16.18;100.00;94983.00;5099812;28;20044;-88
2022/10/11 06:28:32;;;;;;;73.35;37.75;;;;;;;16.32;100.00;94979.63;5099901;28;20389;-87
2022/10/11 06:30:57;;;;;;;92.53;41.58;;;;;;;15.92;100.00;94987.88;5101037;28;20038;-87
2022/10/11 06:33:23;;;;;;;91.82;43.13;;;;;;;15.49;100.00;94986.00;5099402;28;20515;-88
2022/10/11 06:35:49;;;;;;;87.88;42.42;;;;;;;15.87;100.00;94991.31;5099297;28;20039;-88
2022/10/11 06:38:20;;;;;;;78.80;39.83;;;;;;;16.34;100.00;94986.19;5099334;28;20077;-88
2022/10/11 06:40:46;;;;;;;86.25;41.22;;;;;;;15.56;100.00;94989.09;5099414;28;20039;-88
2022/10/11 06:43:11;;;;;;;93.72;43.00;;;;;;;15.56;100.00;94989.09;5082458;28;20031;-87
2022/10/11 06:45:37;;;;;;;76.72;38.30;;;;;;;16.25;100.00;94987.91;5099104;28;20050;-87
2022/10/11 06:48:04;;;;;;;73.90;38.03;;;;;;;16.62;100.00;94985.47;5082362;28;20090;-88
2022/10/11 06:50:30;;;;;;;70.85;36.45;;;;;;;16.79;100.00;94991.03;5098984;28;20024;-87
2022/10/11 06:52:55;;;;;;;78.05;36.25;;;;;;;16.96;100.00;94985.16;5100231;28;20073;-88
2022/10/11 06:55:21;;;;;;;78.65;38.10;;;;;;;16.94;100.00;94989.97;5099288;28;20039;-87
2022/10/11 06:57:46;;;;;;;65.47;36.75;;;;;;;17.11;100.00;94993.94;5098727;28;20409;-88
2022/10/11 07:00:12;;;;;;;75.63;36.45;;;;;;;17.18;100.00;94994.34;5099301;28;20294;-87
2022/10/11 07:02:38;;;;;;;68.35;35.38;;;;;;;17.32;100.00;94993.56;5098791;28;20332;-88
2022/10/11 07:05:03;;;;;;;71.38;34.08;;;;;;;17.49;100.00;94992.94;5081880;28;20115;-88
2022/10/11 07:07:29;;;;;;;76.00;35.75;;;;;;;17.50;100.00;94989.22;5098717;28;20066;-88
2022/10/11 07:09:54;;;;;;;77.03;36.95;;;;;;;17.53;100.00;94999.25;5098787;28;20023;-88
2022/10/11 07:12:19;;;;;;;69.43;34.10;;;;;;;17.61;100.00;95003.81;5098279;28;20535;-87
2022/10/11 07:14:45;;;;;;;84.35;39.53;;;;;;;17.20;100.00;95008.06;5098838;28;20027;-88
2022/10/11 07:17:10;;;;;;;72.55;37.05;;;;;;;17.60;100.00;95004.13;5098506;28;20024;-88
2022/10/11 07:19:38;;;;;;;83.15;35.78;;;;;;;17.77;100.00;95011.47;5099627;28;20031;-88
2022/10/11 07:22:03;;;;;;;66.93;35.30;;;;;;;17.79;100.00;95012.75;5098107;28;20047;-88
2022/10/11 07:24:29;;;;;;;73.80;37.67;;;;;;;17.83;100.00;95010.28;5098252;28;20036;-88
2022/10/11 07:26:54;;;;;;;75.57;36.28;;;;;;;17.79;100.00;95009.31;5098219;28;20039;-87
2022/10/11 07:29:21;;;;;;;75.95;36.83;;;;;;;17.69;100.00;95010.28;5098201;28;20352;-88
2022/10/11 07:31:46;;;;;;;76.68;37.83;;;;;;;17.53;100.00;95007.19;5098295;28;20117;-88
2022/10/11 07:34:12;;;;;;;73.15;37.33;;;;;;;17.66;100.00;95010.88;5099474;28;20449;-88
2022/10/11 07:36:37;;;;;;;77.07;37.45;;;;;;;18.13;100.00;95012.59;5098415;28;20036;-87
2022/10/11 07:39:04;;;;;;;75.82;38.47;;;;;;;18.10;100.00;95019.28;5098089;28;20318;-88
2022/10/11 07:41:29;;;;;;;86.13;39.88;;;;;;;17.87;100.00;95010.47;5099269;28;20055;-88
2022/10/11 07:43:55;;;;;;;78.72;37.75;;;;;;;17.85;100.00;95026.69;5081375;28;20157;-87
2022/10/11 07:46:20;;;;;;;84.82;40.33;;;;;;;17.59;100.00;95013.94;5099114;28;20063;-88
2022/10/11 07:48:46;;;;;;;84.03;41.75;;;;;;;17.79;100.00;95014.63;5081376;28;20110;-87
2022/10/11 07:51:22;;;;;;;67.38;34.70;;;;;;;18.20;100.00;95019.03;5097909;28;20028;-88
2022/10/11 07:53:54;;;;;;;75.07;37.38;;;;;;;18.07;100.00;95019.88;5097930;28;20060;-88
2022/10/11 07:56:22;;;;;;;73.10;37.03;;;;;;;18.07;100.00;95020.66;5099325;28;20032;-88
2022/10/11 07:58:59;;;;;;;75.80;37.10;;;;;;;18.05;100.00;95017.53;5098753;28;20035;-88
2022/10/11 08:01:25;;;;;;;73.75;35.33;;;;;;;18.27;100.00;95023.94;5097964;28;20108;-88
2022/10/11 08:03:51;;;;;;;73.65;36.30;;;;;;;18.35;100.00;95022.44;5081014;28;20024;-88
2022/10/11 08:06:19;;;;;;;69.28;33.25;;;;;;;18.36;100.00;95021.34;5080659;28;20042;-88
2022/10/11 08:08:45;;;;;;;73.65;35.25;;;;;;;18.19;100.00;95024.66;5097292;28;20032;-88
2022/10/11 08:11:19;;;;;;;66.00;32.20;;;;;;;18.78;100.00;95024.59;5097774;28;20080;-88
2022/10/11 08:13:46;;;;;;;61.78;31.60;;;;;;;18.91;100.00;95025.63;5097511;28;20032;-88
2022/10/11 08:16:13;;;;;;;62.42;32.88;;;;;;;18.69;100.00;95015.81;5097450;28;20425;-87
2022/10/11 08:18:38;;;;;;;68.88;34.08;;;;;;;18.90;100.00;95017.97;5080653;28;20027;-87
2022/10/11 08:21:12;;;;;;;74.03;37.30;;;;;;;18.69;100.00;95018.47;5097241;28;20039;-88
2022/10/11 08:23:38;;;;;;;73.22;34.85;;;;;;;18.38;100.00;95024.50;5080875;28;20035;-88
2022/10/11 08:26:04;;;;;;;71.60;34.55;;;;;;;18.67;100.00;95022.50;5097250;28;20024;-88
2022/10/11 08:28:30;;;;;;;66.95;33.80;;;;;;;19.31;100.00;95013.50;5080422;28;20063;-88
2022/10/11 08:30:55;;;;;;;65.82;34.17;;;;;;;19.28;100.00;95028.19;5097226;28;20085;-88
2022/10/11 08:33:22;;;;;;;61.08;32.05;;;;;;;19.68;100.00;95027.34;5079154;28;20063;-88
2022/10/11 08:35:49;;;;;;;59.65;32.42;;;;;;;19.24;100.00;95035.19;5097287;28;20038;-88
2022/10/11 08:38:18;;;;;;;60.53;31.38;;;;;;;19.83;100.00;95033.34;5096706;28;20024;-88
2022/10/11 08:40:54;;;;;;;57.72;29.70;;;;;;;20.24;100.00;95028.75;5080265;28;20051;-88
2022/10/11 08:43:31;;;;;;;57.65;29.60;;;;;;;19.59;100.00;95030.00;5097463;28;20028;-88
2022/10/11 08:45:58;;;;;;;48.35;27.70;;;;;;;20.02;100.00;95030.44;5096909;28;20050;-88
2022/10/11 08:48:36;;;;;;;50.47;28.42;;;;;;;20.10;100.00;95034.19;5097899;28;20119;-88
2022/10/11 08:51:14;;;;;;;50.00;25.50;;;;;;;19.72;100.00;95035.50;5096653;28;20322;-88
2022/10/11 08:53:45;;;;;;;48.17;25.67;;;;;;;19.71;100.00;95026.72;5080085;28;20314;-88
2022/10/11 08:56:12;;;;;;;44.83;23.83;;;;;;;19.92;100.00;95031.50;5080054;28;20028;-88
2022/10/11 08:58:59;;;;;;;43.85;24.92;;;;;;;20.06;100.00;95024.19;5079881;28;20337;-88
2022/10/11 09:01:26;;;;;;;44.90;22.98;;;;;;;20.13;100.00;95029.03;5096466;28;20425;-88
2022/10/11 09:03:51;;;;;;;44.85;24.52;;;;;;;20.30;100.00;95025.59;5096284;28;20081;-88
2022/10/11 09:06:39;;;;;;;47.70;23.88;;;;;;;19.92;100.00;95026.97;5079868;28;20028;-88
2022/10/11 09:09:30;;;;;;;54.25;26.80;;;;;;;20.10;100.00;95023.56;5079600;28;20082;-88
2022/10/11 09:12:01;;;;;;;56.17;25.73;;;;;;;19.98;100.00;95026.84;5097835;28;20039;-88
2022/10/11 09:14:45;;;;;;;46.03;23.33;;;;;;;20.13;100.00;95023.72;5097306;28;20036;-88
2022/10/11 09:17:14;;;;;;;;;;;;;;;20.32;100.00;95019.97;5096679;28;20131;-89
2022/10/11 09:20:05;;;;;;;48.13;21.70;;;;;;;20.15;100.00;95021.53;5079566;28;19912;-88
2022/10/11 09:23:12;;;;;;;37.35;19.33;;;;;;;19.93;100.00;95022.44;5079373;28;20330;-89
2022/10/11 09:25:54;;;;;;;38.72;19.35;;;;;;;20.06;100.00;95024.19;5096013;28;20028;-89
2022/10/11 09:28:40;;;;;;;36.63;17.85;;;;;;;20.69;100.00;95027.59;5079440;28;20027;-88
2022/10/11 09:31:09;;;;;;;32.60;17.98;;;;;;;20.06;100.00;95018.84;5079608;28;20069;-88
2022/10/11 09:33:55;;;;;;;35.78;18.45;;;;;;;20.01;100.00;95010.25;5079443;28;20035;-89
2022/10/11 09:36:32;;;;;;;35.88;18.95;;;;;;;19.89;100.00;95019.59;5078580;28;20036;-88
2022/10/11 09:39:00;;;;;;;38.65;18.50;;;;;;;20.28;100.00;95019.78;5096382;28;20429;-89
2022/10/11 09:41:52;;;;;;;35.80;17.10;;;;;;;20.67;100.00;95014.63;5097186;28;20047;-88
2022/10/11 09:44:32;;;;;;;30.35;16.30;;;;;;;21.05;100.00;95023.81;5096588;28;20028;-88
2022/10/11 09:46:57;;;;;;;27.48;16.05;;;;;;;20.76;100.00;95023.34;5079184;28;20024;-88
2022/10/11 09:49:46;;;;;;;30.80;14.40;;;;;;;20.76;100.00;95023.34;5096112;28;20326;-89
2022/10/11 09:52:17;;;;;;;28.92;15.52;;;;;;;21.16;94.71;95022.38;5095879;28;20024;-88
2022/10/11 09:54:48;;;;;;;31.02;16.58;;;;;;;21.02;95.44;95014.56;5079175;28;20154;-88
2022/10/11 09:57:27;;;;;;;28.13;14.93;;;;;;;20.94;92.40;95015.34;5078457;28;20024;-88
2022/10/11 10:00:18;;;;;;;39.03;15.52;;;;;;;21.29;100.00;95017.91;5096561;28;20334;-88
2022/10/11 10:02:46;;;;;;;33.17;16.63;;;;;;;21.19;94.37;95019.06;5095835;28;20020;-88
2022/10/11 10:05:23;;;;;;;32.60;14.73;;;;;;;21.36;90.95;95027.28;5095713;28;20417;-88
2022/10/11 10:08:01;;;;;;;32.35;16.13;;;;;;;20.98;92.94;95018.97;5078965;28;20416;-88
2022/10/11 10:10:30;;;;;;;33.47;17.23;;;;;;;21.49;100.00;95022.84;5095516;28;20425;-88
2022/10/11 10:12:58;;;;;;;33.33;16.38;;;;;;;21.52;95.99;95019.53;5095687;28;20359;-89
2022/10/11 10:15:28;;;;;;;33.45;16.00;;;;;;;22.08;93.65;95023.94;5095607;28;20075;-89
2022/10/11 10:17:56;;;;;;;31.27;15.77;;;;;;;22.43;96.40;95026.34;5095984;28;20035;-89
2022/10/11 10:20:31;;;;;;;31.73;16.25;;;;;;;22.85;79.37;95023.63;5079210;28;20019;-88
2022/10/11 10:23:20;;;;;;;32.88;16.17;;;;;;;22.58;87.95;95020.44;5095514;28;20035;-89
2022/10/11 10:25:51;;;;;;;24.98;13.85;;;;;;;23.46;82.86;95018.75;5095630;28;20016;-89
2022/10/11 10:28:20;;;;;;;28.23;14.80;;;;;;;22.86;80.91;95013.75;5095841;28;20040;-88
2022/10/11 10:30:53;;;;;;;36.53;18.08;;;;;;;22.27;86.20;95018.94;5078748;28;20448;-88
2022/10/11 10:33:19;;;;;;;28.10;15.88;;;;;;;22.35;90.42;95017.28;5079433;28;20329;-87
2022/10/11 10:35:59;;;;;;;30.55;17.90;;;;;;;22.23;95.02;95020.69;5096658;28;20024;-89
2022/10/11 10:38:30;;;;;;;37.47;19.27;;;;;;;21.62;89.81;95019.19;5095774;28;20030;-89
2022/10/11 10:40:58;;;;;;;37.35;20.25;;;;;;;20.55;95.39;95017.13;5095362;28;20028;-88
2022/10/11 10:43:35;;;;;;;41.17;18.90;;;;;;;21.14;98.23;95019.22;5079053;28;20073;-89
2022/10/11 10:46:34;;;;;;;35.65;17.88;;;;;;;21.52;96.33;95017.66;5095457;28;20035;-88
2022/10/11 10:49:18;;;;;;;37.97;19.10;;;;;;;21.31;97.55;95025.59;5096098;28;20341;-88
2022/10/11 10:52:04;;;;;;;38.20;19.25;;;;;;;20.26;97.80;95029.19;5095311;28;20035;-88
2022/10/11 10:54:48;;;;;;;33.58;18.40;;;;;;;20.18;100.00;95020.91;5096290;28;20027;-88
2022/10/11 10:57:49;;;;;;;35.40;18.70;;;;;;;20.76;100.00;95023.34;5080046;28;20034;-88
2022/10/11 11:00:17;;;;;;;37.58;18.40;;;;;;;21.18;96.25;95016.69;5076873;28;20445;-88
2022/10/11 11:02:52;;;;;;;37.35;18.77;;;;;;;20.76;99.16;95012.69;5098916;28;20032;-88
2022/10/11 11:05:24;;;;;;;34.08;17.67;;;;;;;;;;5098522;28;20023;-87
2022/10/11 11:08:18;;;;;;;42.95;21.27;;;;;;;20.88;97.26;95013.97;5099947;28;20039;-88
2022/10/11 11:10:48;;;;;;;36.65;18.27;;;;;;;20.93;97.18;95016.44;5092801;28;20345;-88
2022/10/11 11:13:22;;;;;;;32.88;18.42;;;;;;;20.89;97.06;95018.19;5081969;28;20084;-88
2022/10/11 11:16:11;;;;;;;33.95;17.98;;;;;;;21.16;88.38;95003.72;5082330;28;20027;-88
2022/10/11 11:18:38;;;;;;;31.52;18.17;;;;;;;20.60;95.28;95014.31;5098556;28;20348;-88
2022/10/11 11:21:10;;;;;;;34.67;17.83;;;;;;;20.98;96.98;95008.31;5098811;28;20448;-87
2022/10/11 11:24:14;;;;;;;31.35;18.23;;;;;;;20.32;100.00;95004.00;5087439;28;20158;-88
2022/10/11 11:26:58;;;;;;;31.90;18.35;;;;;;;20.05;100.00;95006.66;5084545;28;20033;-87